EGGW/LTN METAR and TAF weather

Enter ICAO airport designator
Station Type Date Time Source
EGGW METAR 2019/08/25 02:50 UTC NOAA

EGGW 250250Z AUTO 10003KT 7000 NCD 16/13 Q1017


Station Type Date Time Source
EGGW Decoded METAR 2019/08/25 02:50 UTC NOAA

Station name not available
Aug 24, 2019 - 10:50 PM EDT / 2019.08.25 0250 UTC
Wind: from the E (100 degrees) at 3 MPH (3 KT):0
Visibility: 4 mile(s):0
Temperature: 60 F (16 C)
Dew Point: 55 F (13 C)
Relative Humidity: 82%
Pressure (altimeter): 30.03 in. Hg (1017 hPa)
ob: EGGW 250250Z AUTO 10003KT 7000 NCD 16/13 Q1017
cycle: 3

Station Type Date Time Source
EGGW TAF 2019/08/25 01:46 UTC NOAA

TAF
AMD EGGW 250137Z 2501/2524 VRB05KT CAVOK
TEMPO 2501/2507 8000

Example: see airport list